sensor_id;sensor_type;location;lat;lon;timestamp;temperature;humidity
55673;DHT22;41554;45.366;20.400;2022-09-20T06:47:57;333.60;2329.60
55673;DHT22;41554;45.366;20.400;2022-09-20T06:50:22;333.60;2329.60
55673;DHT22;41554;45.366;20.400;2022-09-20T06:52:48;333.70;2329.60
55673;DHT22;41554;45.366;20.400;2022-09-20T06:55:28;358.40;2329.60
55673;DHT22;41554;45.366;20.400;2022-09-20T06:57:55;358.40;2329.60
55673;DHT22;41554;45.366;20.400;2022-09-20T07:00:43;358.50;2329.60
55673;DHT22;41554;45.366;20.400;2022-09-20T07:03:09;358.60;2329.60
55673;DHT22;41554;45.366;20.400;2022-09-20T07:05:37;358.70;2329.60
55673;DHT22;41554;45.366;20.400;2022-09-20T07:08:03;358.70;2329.60
55673;DHT22;41554;45.366;20.400;2022-09-20T07:10:29;358.70;2329.60
55673;DHT22;41554;45.366;20.400;2022-09-20T07:12:58;358.70;2329.60
55673;DHT22;41554;45.366;20.400;2022-09-20T07:15:29;358.80;2329.60
55673;DHT22;41554;45.366;20.400;2022-09-20T07:17:55;358.90;2329.60
55673;DHT22;41554;45.366;20.400;2022-09-20T07:20:22;359.00;2329.60
55673;DHT22;41554;45.366;20.400;2022-09-20T07:22:47;359.00;2329.60
55673;DHT22;41554;45.366;20.400;2022-09-20T07:25:13;359.10;2329.60
55673;DHT22;41554;45.366;20.400;2022-09-20T07:27:39;359.10;2329.60
55673;DHT22;41554;45.366;20.400;2022-09-20T07:30:06;359.20;2329.60
55673;DHT22;41554;45.366;20.400;2022-09-20T07:32:32;359.20;2329.60
55673;DHT22;41554;45.366;20.400;2022-09-20T07:34:58;359.30;2329.60
55673;DHT22;41554;45.366;20.400;2022-09-20T07:37:24;359.30;2329.60
55673;DHT22;41554;45.366;20.400;2022-09-20T12:41:52;486.80;2227.20
55673;DHT22;41554;45.366;20.400;2022-09-20T14:48:33;435.50;2304.00
55673;DHT22;41554;45.366;20.400;2022-09-20T14:53:37;410.50;2355.20
55673;DHT22;41554;45.366;20.400;2022-09-20T14:59:00;410.40;2355.20
55673;DHT22;41554;45.366;20.400;2022-09-20T15:01:27;410.30;2355.20
55673;DHT22;41554;45.366;20.400;2022-09-20T15:03:56;410.30;2355.20
55673;DHT22;41554;45.366;20.400;2022-09-20T15:06:22;410.40;2355.20
55673;DHT22;41554;45.366;20.400;2022-09-20T15:08:49;410.50;2355.20
55673;DHT22;41554;45.366;20.400;2022-09-20T15:11:15;410.50;2355.20
55673;DHT22;41554;45.366;20.400;2022-09-20T15:13:41;435.30;2355.20
55673;DHT22;41554;45.366;20.400;2022-09-20T15:16:07;410.50;2355.20
55673;DHT22;41554;45.366;20.400;2022-09-20T15:18:39;435.30;2355.20
55673;DHT22;41554;45.366;20.400;2022-09-20T15:21:06;435.40;2355.20
55673;DHT22;41554;45.366;20.400;2022-09-20T15:23:32;435.70;2355.20
55673;DHT22;41554;45.366;20.400;2022-09-20T15:25:58;435.70;2355.20
55673;DHT22;41554;45.366;20.400;2022-09-20T15:28:25;435.80;2355.20
55673;DHT22;41554;45.366;20.400;2022-09-20T15:30:52;435.80;2355.20
55673;DHT22;41554;45.366;20.400;2022-09-20T15:33:19;436.00;2355.20
55673;DHT22;41554;45.366;20.400;2022-09-20T15:35:46;460.80;2355.20
55673;DHT22;41554;45.366;20.400;2022-09-20T15:38:13;436.00;2329.60
55673;DHT22;41554;45.366;20.400;2022-09-20T15:40:41;436.10;2278.40
55673;DHT22;41554;45.366;20.400;2022-09-20T15:43:10;436.00;2355.20
55673;DHT22;41554;45.366;20.400;2022-09-20T15:45:49;435.80;2304.00
55673;DHT22;41554;45.366;20.400;2022-09-20T15:48:16;435.50;2355.20
55673;DHT22;41554;45.366;20.400;2022-09-20T15:51:06;435.60;2355.20
55673;DHT22;41554;45.366;20.400;2022-09-20T15:53:39;410.50;2355.20
55673;DHT22;41554;45.366;20.400;2022-09-20T15:58:47;410.20;2355.20
55673;DHT22;41554;45.366;20.400;2022-09-20T16:01:13;410.10;2355.20
55673;DHT22;41554;45.366;20.400;2022-09-20T16:03:42;409.90;2355.20
55673;DHT22;41554;45.366;20.400;2022-09-20T16:06:09;410.00;2355.20
55673;DHT22;41554;45.366;20.400;2022-09-20T16:08:37;410.20;2355.20
55673;DHT22;41554;45.366;20.400;2022-09-20T16:11:04;410.10;2355.20
55673;DHT22;41554;45.366;20.400;2022-09-20T16:13:30;409.90;2355.20
55673;DHT22;41554;45.366;20.400;2022-09-20T16:15:58;409.90;2355.20
55673;DHT22;41554;45.366;20.400;2022-09-20T16:18:24;409.90;2355.20
55673;DHT22;41554;45.366;20.400;2022-09-20T16:21:10;409.90;2355.20
55673;DHT22;41554;45.366;20.400;2022-09-20T16:23:41;409.60;2355.20
55673;DHT22;41554;45.366;20.400;2022-09-20T16:26:08;409.70;2355.20
55673;DHT22;41554;45.366;20.400;2022-09-20T16:28:39;384.80;2329.60
55673;DHT22;41554;45.366;20.400;2022-09-20T16:31:05;384.80;2329.60
55673;DHT22;41554;45.366;20.400;2022-09-20T16:33:32;384.60;2329.60
55673;DHT22;41554;45.366;20.400;2022-09-20T16:35:58;384.60;2329.60
55673;DHT22;41554;45.366;20.400;2022-09-20T16:38:24;384.60;2329.60
55673;DHT22;41554;45.366;20.400;2022-09-20T16:40:50;384.50;2329.60
55673;DHT22;41554;45.366;20.400;2022-09-20T16:43:16;384.40;2329.60
55673;DHT22;41554;45.366;20.400;2022-09-20T16:45:47;384.40;2329.60
55673;DHT22;41554;45.366;20.400;2022-09-20T16:48:13;384.30;2329.60
55673;DHT22;41554;45.366;20.400;2022-09-20T16:50:38;384.30;2329.60
55673;DHT22;41554;45.366;20.400;2022-09-20T16:53:04;384.20;2329.60
55673;DHT22;41554;45.366;20.400;2022-09-20T16:55:30;384.50;2329.60
55673;DHT22;41554;45.366;20.400;2022-09-20T16:57:56;384.20;2329.60
55673;DHT22;41554;45.366;20.400;2022-09-20T17:00:22;384.20;2329.60
55673;DHT22;41554;45.366;20.400;2022-09-20T17:02:48;384.20;2329.60
55673;DHT22;41554;45.366;20.400;2022-09-20T17:05:17;384.20;2329.60
55673;DHT22;41554;45.366;20.400;2022-09-20T17:07:43;384.20;2329.60
55673;DHT22;41554;45.366;20.400;2022-09-20T17:10:09;384.20;2329.60
55673;DHT22;41554;45.366;20.400;2022-09-20T17:12:35;384.20;2329.60
55673;DHT22;41554;45.366;20.400;2022-09-20T17:15:07;384.10;2329.60
55673;DHT22;41554;45.366;20.400;2022-09-20T17:17:36;384.10;2329.60
55673;DHT22;41554;45.366;20.400;2022-09-20T17:20:01;384.10;2329.60
55673;DHT22;41554;45.366;20.400;2022-09-20T17:22:30;384.10;2329.60
55673;DHT22;41554;45.366;20.400;2022-09-20T17:24:56;384.10;2329.60
55673;DHT22;41554;45.366;20.400;2022-09-20T17:27:22;384.10;2329.60
55673;DHT22;41554;45.366;20.400;2022-09-20T17:29:48;384.10;2329.60
55673;DHT22;41554;45.366;20.400;2022-09-20T17:32:15;384.00;2329.60
55673;DHT22;41554;45.366;20.400;2022-09-20T17:34:40;384.00;2329.60
55673;DHT22;41554;45.366;20.400;2022-09-20T17:37:06;384.00;2329.60
55673;DHT22;41554;45.366;20.400;2022-09-20T17:39:32;384.00;2329.60
55673;DHT22;41554;45.366;20.400;2022-09-20T17:41:58;384.00;2329.60
55673;DHT22;41554;45.366;20.400;2022-09-20T17:44:23;384.00;2329.60
55673;DHT22;41554;45.366;20.400;2022-09-20T17:46:49;359.30;2329.60
55673;DHT22;41554;45.366;20.400;2022-09-20T17:49:18;384.10;2329.60
55673;DHT22;41554;45.366;20.400;2022-09-20T17:51:54;359.30;2329.60
55673;DHT22;41554;45.366;20.400;2022-09-20T17:54:21;359.30;2329.60
55673;DHT22;41554;45.366;20.400;2022-09-20T17:56:49;359.30;2329.60
55673;DHT22;41554;45.366;20.400;2022-09-20T17:59:17;359.30;2329.60
55673;DHT22;41554;45.366;20.400;2022-09-20T18:01:45;359.30;2329.60
55673;DHT22;41554;45.366;20.400;2022-09-20T18:04:11;359.30;2329.60
55673;DHT22;41554;45.366;20.400;2022-09-20T18:06:40;359.30;2329.60
55673;DHT22;41554;45.366;20.400;2022-09-20T18:09:12;359.30;2329.60
55673;DHT22;41554;45.366;20.400;2022-09-20T18:11:43;359.30;2329.60
55673;DHT22;41554;45.366;20.400;2022-09-20T18:14:15;359.30;2329.60
55673;DHT22;41554;45.366;20.400;2022-09-20T18:16:41;359.30;2329.60
55673;DHT22;41554;45.366;20.400;2022-09-20T18:19:09;359.30;2329.60
55673;DHT22;41554;45.366;20.400;2022-09-20T18:21:36;384.10;2329.60
55673;DHT22;41554;45.366;20.400;2022-09-20T18:24:06;359.30;2329.60
55673;DHT22;41554;45.366;20.400;2022-09-20T18:26:32;359.30;2329.60
55673;DHT22;41554;45.366;20.400;2022-09-20T18:29:12;359.20;2329.60
55673;DHT22;41554;45.366;20.400;2022-09-20T18:31:41;359.20;2329.60
55673;DHT22;41554;45.366;20.400;2022-09-20T18:34:22;384.00;2329.60
55673;DHT22;41554;45.366;20.400;2022-09-20T18:36:56;359.20;2329.60
55673;DHT22;41554;45.366;20.400;2022-09-20T18:39:23;384.00;2329.60
55673;DHT22;41554;45.366;20.400;2022-09-20T18:41:49;359.20;2329.60
55673;DHT22;41554;45.366;20.400;2022-09-20T18:44:15;359.20;2329.60
55673;DHT22;41554;45.366;20.400;2022-09-20T18:46:43;359.20;2329.60
55673;DHT22;41554;45.366;20.400;2022-09-20T18:49:10;359.10;2329.60
55673;DHT22;41554;45.366;20.400;2022-09-20T18:51:37;359.10;2329.60
55673;DHT22;41554;45.366;20.400;2022-09-20T18:54:03;359.10;2329.60
55673;DHT22;41554;45.366;20.400;2022-09-20T18:56:33;359.30;2329.60
55673;DHT22;41554;45.366;20.400;2022-09-20T18:59:00;359.00;2329.60
55673;DHT22;41554;45.366;20.400;2022-09-20T19:12:22;358.70;2329.60
55673;DHT22;41554;45.366;20.400;2022-09-20T19:17:56;358.60;2329.60
55673;DHT22;41554;45.366;20.400;2022-09-20T19:20:30;358.60;2329.60
55673;DHT22;41554;45.366;20.400;2022-09-20T19:25:31;358.50;2329.60
55673;DHT22;41554;45.366;20.400;2022-09-20T19:28:04;358.40;2329.60
55673;DHT22;41554;45.366;20.400;2022-09-20T19:30:30;358.40;2329.60
55673;DHT22;41554;45.366;20.400;2022-09-20T19:32:57;333.70;2329.60
55673;DHT22;41554;45.366;20.400;2022-09-20T19:35:26;333.70;2329.60
55673;DHT22;41554;45.366;20.400;2022-09-20T19:40:48;333.60;2329.60
55673;DHT22;41554;45.366;20.400;2022-09-20T19:43:43;333.40;2329.60
55673;DHT22;41554;45.366;20.400;2022-09-20T19:48:54;333.40;2329.60
55673;DHT22;41554;45.366;20.400;2022-09-20T19:51:26;333.40;2329.60
55673;DHT22;41554;45.366;20.400;2022-09-20T19:53:56;333.40;2329.60
55673;DHT22;41554;45.366;20.400;2022-09-20T19:56:26;333.30;2329.60
55673;DHT22;41554;45.366;20.400;2022-09-20T19:58:53;333.30;2329.60
55673;DHT22;41554;45.366;20.400;2022-09-20T20:01:24;333.30;2329.60
55673;DHT22;41554;45.366;20.400;2022-09-20T20:03:51;333.20;2329.60
55673;DHT22;41554;45.366;20.400;2022-09-20T20:06:33;333.20;2329.60
55673;DHT22;41554;45.366;20.400;2022-09-20T20:09:17;333.10;2329.60
55673;DHT22;41554;45.366;20.400;2022-09-20T20:12:07;333.10;2329.60
55673;DHT22;41554;45.366;20.400;2022-09-20T20:20:49;333.30;2329.60
55673;DHT22;41554;45.366;20.400;2022-09-20T20:26:27;333.40;2329.60
55673;DHT22;41554;45.366;20.400;2022-09-20T20:28:52;333.40;2329.60
55673;DHT22;41554;45.366;20.400;2022-09-20T20:31:19;333.30;2329.60
55673;DHT22;41554;45.366;20.400;2022-09-20T20:33:45;333.40;2329.60
55673;DHT22;41554;45.366;20.400;2022-09-20T20:36:11;333.40;2329.60
55673;DHT22;41554;45.366;20.400;2022-09-20T20:38:39;333.40;2329.60
55673;DHT22;41554;45.366;20.400;2022-09-20T20:41:13;333.30;2329.60
55673;DHT22;41554;45.366;20.400;2022-09-20T20:43:41;333.20;2329.60
55673;DHT22;41554;45.366;20.400;2022-09-20T20:46:09;333.00;2329.60
55673;DHT22;41554;45.366;20.400;2022-09-20T20:48:36;333.00;2329.60
55673;DHT22;41554;45.366;20.400;2022-09-20T20:51:10;333.10;2329.60
55673;DHT22;41554;45.366;20.400;2022-09-20T20:53:40;333.00;2329.60
55673;DHT22;41554;45.366;20.400;2022-09-20T20:58:42;333.00;2329.60
55673;DHT22;41554;45.366;20.400;2022-09-20T21:01:20;333.10;2329.60
55673;DHT22;41554;45.366;20.400;2022-09-20T21:03:50;333.10;2329.60
55673;DHT22;41554;45.366;20.400;2022-09-20T21:06:17;333.10;2329.60
55673;DHT22;41554;45.366;20.400;2022-09-20T21:08:45;333.10;2329.60
55673;DHT22;41554;45.366;20.400;2022-09-20T21:11:23;333.20;2329.60
55673;DHT22;41554;45.366;20.400;2022-09-20T21:13:52;333.20;2329.60
55673;DHT22;41554;45.366;20.400;2022-09-20T21:16:20;333.30;2329.60
55673;DHT22;41554;45.366;20.400;2022-09-20T21:18:48;333.30;2329.60
55673;DHT22;41554;45.366;20.400;2022-09-20T21:21:18;333.30;2329.60
55673;DHT22;41554;45.366;20.400;2022-09-20T21:23:49;333.30;2329.60
55673;DHT22;41554;45.366;20.400;2022-09-20T21:26:15;333.30;2329.60
55673;DHT22;41554;45.366;20.400;2022-09-20T21:28:44;333.30;2329.60
55673;DHT22;41554;45.366;20.400;2022-09-20T21:31:13;333.30;2329.60
55673;DHT22;41554;45.366;20.400;2022-09-20T21:33:40;333.30;2329.60
55673;DHT22;41554;45.366;20.400;2022-09-20T21:36:10;333.30;2329.60
55673;DHT22;41554;45.366;20.400;2022-09-20T21:38:43;333.10;2329.60
55673;DHT22;41554;45.366;20.400;2022-09-20T21:41:16;333.10;2329.60
55673;DHT22;41554;45.366;20.400;2022-09-20T21:43:43;333.00;2329.60
55673;DHT22;41554;45.366;20.400;2022-09-20T21:46:18;333.00;2329.60
55673;DHT22;41554;45.366;20.400;2022-09-20T21:48:45;333.00;2329.60
55673;DHT22;41554;45.366;20.400;2022-09-20T21:51:14;333.10;2329.60
55673;DHT22;41554;45.366;20.400;2022-09-20T21:53:41;333.00;2329.60
55673;DHT22;41554;45.366;20.400;2022-09-20T21:56:13;332.90;2329.60
55673;DHT22;41554;45.366;20.400;2022-09-20T21:58:40;332.90;2329.60
55673;DHT22;41554;45.366;20.400;2022-09-20T22:01:09;332.90;2329.60
55673;DHT22;41554;45.366;20.400;2022-09-20T22:03:42;332.80;2329.60
